sensor_id;sensor_type;location;lat;lon;timestamp;temperature;humidity
26707;DHT22;14319;49.422;10.934;2022-09-09T00:00:16;13.80;90.60
26707;DHT22;14319;49.422;10.934;2022-09-09T00:02:23;13.80;90.30
26707;DHT22;14319;49.422;10.934;2022-09-09T00:04:34;13.70;90.00
26707;DHT22;14319;49.422;10.934;2022-09-09T00:09:39;13.70;90.30
26707;DHT22;14319;49.422;10.934;2022-09-09T00:11:43;13.70;90.70
26707;DHT22;14319;49.422;10.934;2022-09-09T00:13:48;13.70;90.80
26707;DHT22;14319;49.422;10.934;2022-09-09T00:15:59;13.70;90.70
26707;DHT22;14319;49.422;10.934;2022-09-09T00:18:30;13.70;90.50
26707;DHT22;14319;49.422;10.934;2022-09-09T00:22:46;13.70;90.70
26707;DHT22;14319;49.422;10.934;2022-09-09T00:26:52;13.70;90.90
26707;DHT22;14319;49.422;10.934;2022-09-09T00:31:18;13.70;91.10
26707;DHT22;14319;49.422;10.934;2022-09-09T00:33:23;13.70;90.90
26707;DHT22;14319;49.422;10.934;2022-09-09T00:37:33;13.70;90.40
26707;DHT22;14319;49.422;10.934;2022-09-09T00:39:42;13.80;90.30
26707;DHT22;14319;49.422;10.934;2022-09-09T00:42:17;13.80;89.80
26707;DHT22;14319;49.422;10.934;2022-09-09T00:44:22;13.80;89.70
26707;DHT22;14319;49.422;10.934;2022-09-09T00:46:50;13.70;90.20
26707;DHT22;14319;49.422;10.934;2022-09-09T00:49:59;13.60;90.60
26707;DHT22;14319;49.422;10.934;2022-09-09T00:51:57;13.60;90.50
26707;DHT22;14319;49.422;10.934;2022-09-09T00:56:37;13.50;90.90
26707;DHT22;14319;49.422;10.934;2022-09-09T01:01:07;13.40;91.30
26707;DHT22;14319;49.422;10.934;2022-09-09T01:07:54;13.70;89.60
26707;DHT22;14319;49.422;10.934;2022-09-09T01:09:59;13.70;89.20
26707;DHT22;14319;49.422;10.934;2022-09-09T01:15:29;13.60;89.80
26707;DHT22;14319;49.422;10.934;2022-09-09T01:24:32;13.10;92.40
26707;DHT22;14319;49.422;10.934;2022-09-09T01:27:01;13.10;92.30
26707;DHT22;14319;49.422;10.934;2022-09-09T01:29:11;13.20;92.20
26707;DHT22;14319;49.422;10.934;2022-09-09T01:33:51;13.20;92.30
26707;DHT22;14319;49.422;10.934;2022-09-09T01:38:21;13.00;93.60
26707;DHT22;14319;49.422;10.934;2022-09-09T01:40:25;13.00;93.20
26707;DHT22;14319;49.422;10.934;2022-09-09T01:42:28;13.00;92.80
26707;DHT22;14319;49.422;10.934;2022-09-09T01:44:30;13.00;93.30
26707;DHT22;14319;49.422;10.934;2022-09-09T01:46:31;13.00;93.90
26707;DHT22;14319;49.422;10.934;2022-09-09T01:48:33;13.00;92.90
26707;DHT22;14319;49.422;10.934;2022-09-09T01:50:40;13.20;93.20
26707;DHT22;14319;49.422;10.934;2022-09-09T01:52:46;13.30;92.90
26707;DHT22;14319;49.422;10.934;2022-09-09T01:54:50;13.40;91.80
26707;DHT22;14319;49.422;10.934;2022-09-09T02:04:12;13.10;92.60
26707;DHT22;14319;49.422;10.934;2022-09-09T02:06:34;13.10;92.50
26707;DHT22;14319;49.422;10.934;2022-09-09T02:08:47;13.20;92.40
26707;DHT22;14319;49.422;10.934;2022-09-09T02:10:55;13.20;92.20
26707;DHT22;14319;49.422;10.934;2022-09-09T02:13:11;13.20;92.40
26707;DHT22;14319;49.422;10.934;2022-09-09T02:15:22;13.30;92.20
26707;DHT22;14319;49.422;10.934;2022-09-09T02:17:31;13.30;92.00
26707;DHT22;14319;49.422;10.934;2022-09-09T02:19:48;13.30;91.80
26707;DHT22;14319;49.422;10.934;2022-09-09T02:21:59;13.20;91.60
26707;DHT22;14319;49.422;10.934;2022-09-09T02:24:05;13.20;92.70
26707;DHT22;14319;49.422;10.934;2022-09-09T02:26:13;13.00;92.40
26707;DHT22;14319;49.422;10.934;2022-09-09T02:28:22;13.10;92.90
26707;DHT22;14319;49.422;10.934;2022-09-09T02:30:28;13.10;92.90
26707;DHT22;14319;49.422;10.934;2022-09-09T02:32:34;13.10;92.70
26707;DHT22;14319;49.422;10.934;2022-09-09T02:34:43;13.10;92.60
26707;DHT22;14319;49.422;10.934;2022-09-09T02:36:45;13.10;92.90
26707;DHT22;14319;49.422;10.934;2022-09-09T02:38:48;13.10;92.50
26707;DHT22;14319;49.422;10.934;2022-09-09T02:40:52;13.10;92.80
26707;DHT22;14319;49.422;10.934;2022-09-09T02:42:54;13.10;92.90
26707;DHT22;14319;49.422;10.934;2022-09-09T02:44:55;13.10;92.80
26707;DHT22;14319;49.422;10.934;2022-09-09T02:52:04;12.90;93.90
26707;DHT22;14319;49.422;10.934;2022-09-09T02:54:27;13.00;93.80
26707;DHT22;14319;49.422;10.934;2022-09-09T02:56:38;13.00;93.40
26707;DHT22;14319;49.422;10.934;2022-09-09T02:58:41;13.20;93.30
26707;DHT22;14319;49.422;10.934;2022-09-09T03:00:44;13.20;93.50
26707;DHT22;14319;49.422;10.934;2022-09-09T03:02:46;13.20;93.90
26707;DHT22;14319;49.422;10.934;2022-09-09T03:04:47;13.10;92.90
26707;DHT22;14319;49.422;10.934;2022-09-09T03:06:52;13.10;92.80
26707;DHT22;14319;49.422;10.934;2022-09-09T03:08:56;13.00;92.20
26707;DHT22;14319;49.422;10.934;2022-09-09T03:11:01;13.10;93.10
26707;DHT22;14319;49.422;10.934;2022-09-09T03:13:04;13.10;93.00
26707;DHT22;14319;49.422;10.934;2022-09-09T03:15:10;13.10;92.40
26707;DHT22;14319;49.422;10.934;2022-09-09T03:17:12;13.20;92.90
26707;DHT22;14319;49.422;10.934;2022-09-09T03:19:20;13.20;92.90
26707;DHT22;14319;49.422;10.934;2022-09-09T03:21:22;13.20;92.50
26707;DHT22;14319;49.422;10.934;2022-09-09T03:23:23;13.10;92.60
26707;DHT22;14319;49.422;10.934;2022-09-09T03:25:25;13.20;92.40
26707;DHT22;14319;49.422;10.934;2022-09-09T03:27:28;13.30;91.80
26707;DHT22;14319;49.422;10.934;2022-09-09T03:29:29;13.10;91.50
26707;DHT22;14319;49.422;10.934;2022-09-09T03:31:33;13.20;91.90
26707;DHT22;14319;49.422;10.934;2022-09-09T03:33:34;13.20;91.70
26707;DHT22;14319;49.422;10.934;2022-09-09T03:35:38;13.10;92.40
26707;DHT22;14319;49.422;10.934;2022-09-09T03:37:40;13.10;92.70
26707;DHT22;14319;49.422;10.934;2022-09-09T03:39:42;13.10;92.80
26707;DHT22;14319;49.422;10.934;2022-09-09T03:41:43;13.20;91.90
26707;DHT22;14319;49.422;10.934;2022-09-09T03:43:46;13.30;92.00
26707;DHT22;14319;49.422;10.934;2022-09-09T03:45:47;13.30;92.00
26707;DHT22;14319;49.422;10.934;2022-09-09T03:47:49;13.40;91.60
26707;DHT22;14319;49.422;10.934;2022-09-09T03:49:51;13.40;91.20
26707;DHT22;14319;49.422;10.934;2022-09-09T03:51:51;13.30;91.80
26707;DHT22;14319;49.422;10.934;2022-09-09T03:53:52;13.30;91.90
26707;DHT22;14319;49.422;10.934;2022-09-09T03:55:57;13.30;92.00
26707;DHT22;14319;49.422;10.934;2022-09-09T03:58:00;13.30;92.60
26707;DHT22;14319;49.422;10.934;2022-09-09T04:00:04;13.30;92.30
26707;DHT22;14319;49.422;10.934;2022-09-09T04:02:16;13.20;91.40
26707;DHT22;14319;49.422;10.934;2022-09-09T04:04:17;13.10;91.70
26707;DHT22;14319;49.422;10.934;2022-09-09T04:06:20;13.10;92.40
26707;DHT22;14319;49.422;10.934;2022-09-09T04:08:23;13.00;92.20
26707;DHT22;14319;49.422;10.934;2022-09-09T04:10:26;13.00;92.80
26707;DHT22;14319;49.422;10.934;2022-09-09T04:12:29;12.90;93.10
26707;DHT22;14319;49.422;10.934;2022-09-09T04:14:29;13.00;93.20
26707;DHT22;14319;49.422;10.934;2022-09-09T04:16:33;13.00;93.20
26707;DHT22;14319;49.422;10.934;2022-09-09T04:18:34;13.00;93.30
26707;DHT22;14319;49.422;10.934;2022-09-09T04:20:35;13.20;93.30
26707;DHT22;14319;49.422;10.934;2022-09-09T04:22:36;13.20;92.70
26707;DHT22;14319;49.422;10.934;2022-09-09T04:24:39;13.30;91.80
26707;DHT22;14319;49.422;10.934;2022-09-09T04:26:40;13.20;92.50
26707;DHT22;14319;49.422;10.934;2022-09-09T04:28:42;13.20;92.20
26707;DHT22;14319;49.422;10.934;2022-09-09T04:30:49;13.10;92.80
26707;DHT22;14319;49.422;10.934;2022-09-09T04:32:49;13.10;92.50
26707;DHT22;14319;49.422;10.934;2022-09-09T04:34:50;13.10;92.70
26707;DHT22;14319;49.422;10.934;2022-09-09T04:36:51;13.10;92.60
26707;DHT22;14319;49.422;10.934;2022-09-09T04:38:53;12.90;93.20
26707;DHT22;14319;49.422;10.934;2022-09-09T04:40:53;12.80;93.40
26707;DHT22;14319;49.422;10.934;2022-09-09T04:42:58;12.90;93.90
26707;DHT22;14319;49.422;10.934;2022-09-09T04:44:59;12.90;93.60
26707;DHT22;14319;49.422;10.934;2022-09-09T04:47:02;13.00;93.50
26707;DHT22;14319;49.422;10.934;2022-09-09T04:49:02;13.00;93.20
26707;DHT22;14319;49.422;10.934;2022-09-09T04:51:08;13.00;93.00
26707;DHT22;14319;49.422;10.934;2022-09-09T04:53:11;13.20;93.30
26707;DHT22;14319;49.422;10.934;2022-09-09T04:55:13;13.00;92.90
26707;DHT22;14319;49.422;10.934;2022-09-09T04:57:17;13.10;92.80
26707;DHT22;14319;49.422;10.934;2022-09-09T04:59:17;13.20;92.40
26707;DHT22;14319;49.422;10.934;2022-09-09T05:01:23;13.20;91.50
26707;DHT22;14319;49.422;10.934;2022-09-09T05:03:27;13.20;91.50
26707;DHT22;14319;49.422;10.934;2022-09-09T05:05:27;13.00;92.60
26707;DHT22;14319;49.422;10.934;2022-09-09T05:07:29;13.00;93.10
26707;DHT22;14319;49.422;10.934;2022-09-09T05:09:31;13.10;93.10
26707;DHT22;14319;49.422;10.934;2022-09-09T05:11:33;13.20;92.20
26707;DHT22;14319;49.422;10.934;2022-09-09T05:13:50;13.20;91.90
26707;DHT22;14319;49.422;10.934;2022-09-09T05:15:55;13.20;92.20
26707;DHT22;14319;49.422;10.934;2022-09-09T05:17:58;13.20;91.40
26707;DHT22;14319;49.422;10.934;2022-09-09T05:20:00;13.20;91.70
26707;DHT22;14319;49.422;10.934;2022-09-09T05:22:00;13.20;92.40
26707;DHT22;14319;49.422;10.934;2022-09-09T05:24:09;13.30;91.80
26707;DHT22;14319;49.422;10.934;2022-09-09T05:26:16;13.20;91.40
26707;DHT22;14319;49.422;10.934;2022-09-09T05:28:17;13.00;92.50
26707;DHT22;14319;49.422;10.934;2022-09-09T05:30:18;12.90;93.50
26707;DHT22;14319;49.422;10.934;2022-09-09T05:32:20;12.90;94.20
26707;DHT22;14319;49.422;10.934;2022-09-09T05:34:23;13.00;93.60
26707;DHT22;14319;49.422;10.934;2022-09-09T05:36:24;13.00;93.70
26707;DHT22;14319;49.422;10.934;2022-09-09T05:38:29;13.20;93.40
26707;DHT22;14319;49.422;10.934;2022-09-09T05:40:30;13.10;93.10
26707;DHT22;14319;49.422;10.934;2022-09-09T05:42:31;13.20;93.20
26707;DHT22;14319;49.422;10.934;2022-09-09T05:44:33;13.30;92.90
26707;DHT22;14319;49.422;10.934;2022-09-09T05:46:35;13.40;93.10
26707;DHT22;14319;49.422;10.934;2022-09-09T05:48:38;13.50;93.10
26707;DHT22;14319;49.422;10.934;2022-09-09T05:50:39;13.60;92.40
26707;DHT22;14319;49.422;10.934;2022-09-09T05:52:40;13.60;92.00
26707;DHT22;14319;49.422;10.934;2022-09-09T05:54:41;13.60;90.50
26707;DHT22;14319;49.422;10.934;2022-09-09T05:56:43;13.30;92.00
26707;DHT22;14319;49.422;10.934;2022-09-09T05:58:45;13.20;93.10
26707;DHT22;14319;49.422;10.934;2022-09-09T06:00:49;13.20;92.70
26707;DHT22;14319;49.422;10.934;2022-09-09T06:02:51;13.30;92.40
26707;DHT22;14319;49.422;10.934;2022-09-09T06:04:53;13.30;92.50
26707;DHT22;14319;49.422;10.934;2022-09-09T06:06:57;13.30;93.10
26707;DHT22;14319;49.422;10.934;2022-09-09T06:08:58;13.20;93.00
26707;DHT22;14319;49.422;10.934;2022-09-09T06:11:07;13.20;93.50
26707;DHT22;14319;49.422;10.934;2022-09-09T06:13:08;13.20;93.90
26707;DHT22;14319;49.422;10.934;2022-09-09T06:15:10;13.20;93.90
26707;DHT22;14319;49.422;10.934;2022-09-09T06:17:11;13.20;93.90
26707;DHT22;14319;49.422;10.934;2022-09-09T06:19:12;13.20;94.40
26707;DHT22;14319;49.422;10.934;2022-09-09T06:21:19;13.10;94.70
26707;DHT22;14319;49.422;10.934;2022-09-09T06:23:21;13.10;93.90
26707;DHT22;14319;49.422;10.934;2022-09-09T06:25:21;13.00;94.80
26707;DHT22;14319;49.422;10.934;2022-09-09T06:27:22;13.20;95.00
26707;DHT22;14319;49.422;10.934;2022-09-09T06:29:23;13.30;94.80
26707;DHT22;14319;49.422;10.934;2022-09-09T06:31:27;13.50;94.50
26707;DHT22;14319;49.422;10.934;2022-09-09T06:33:35;13.60;94.00
26707;DHT22;14319;49.422;10.934;2022-09-09T06:35:40;13.70;93.70
26707;DHT22;14319;49.422;10.934;2022-09-09T06:37:45;13.80;93.10
26707;DHT22;14319;49.422;10.934;2022-09-09T06:39:46;13.90;92.90
26707;DHT22;14319;49.422;10.934;2022-09-09T06:41:47;14.10;92.70
26707;DHT22;14319;49.422;10.934;2022-09-09T06:44:09;14.10;92.70
26707;DHT22;14319;49.422;10.934;2022-09-09T06:46:17;14.20;92.70
26707;DHT22;14319;49.422;10.934;2022-09-09T06:48:20;14.30;92.10
26707;DHT22;14319;49.422;10.934;2022-09-09T06:50:20;14.40;92.60
26707;DHT22;14319;49.422;10.934;2022-09-09T06:52:23;14.40;92.20
26707;DHT22;14319;49.422;10.934;2022-09-09T06:54:25;14.60;91.90
26707;DHT22;14319;49.422;10.934;2022-09-09T06:56:32;14.80;90.50
26707;DHT22;14319;49.422;10.934;2022-09-09T06:58:36;15.00;89.50
26707;DHT22;14319;49.422;10.934;2022-09-09T07:00:38;15.10;87.60
26707;DHT22;14319;49.422;10.934;2022-09-09T07:02:39;15.30;90.10
26707;DHT22;14319;49.422;10.934;2022-09-09T07:04:43;15.40;89.70
26707;DHT22;14319;49.422;10.934;2022-09-09T07:06:44;15.40;89.30
26707;DHT22;14319;49.422;10.934;2022-09-09T07:09:00;15.50;88.70
26707;DHT22;14319;49.422;10.934;2022-09-09T07:11:05;15.20;88.50
26707;DHT22;14319;49.422;10.934;2022-09-09T07:13:08;15.20;87.90
26707;DHT22;14319;49.422;10.934;2022-09-09T07:15:10;15.10;88.40
26707;DHT22;14319;49.422;10.934;2022-09-09T07:17:15;15.00;90.90
26707;DHT22;14319;49.422;10.934;2022-09-09T07:19:16;14.60;92.20
26707;DHT22;14319;49.422;10.934;2022-09-09T07:21:19;14.50;92.40
26707;DHT22;14319;49.422;10.934;2022-09-09T07:23:21;14.50;93.00
26707;DHT22;14319;49.422;10.934;2022-09-09T07:25:23;14.50;92.40
26707;DHT22;14319;49.422;10.934;2022-09-09T07:27:24;14.40;92.50
26707;DHT22;14319;49.422;10.934;2022-09-09T07:29:26;14.40;93.00
26707;DHT22;14319;49.422;10.934;2022-09-09T07:31:32;14.50;93.10
26707;DHT22;14319;49.422;10.934;2022-09-09T07:33:35;14.50;92.90
26707;DHT22;14319;49.422;10.934;2022-09-09T07:35:36;14.60;93.30
26707;DHT22;14319;49.422;10.934;2022-09-09T07:37:38;14.70;92.70
26707;DHT22;14319;49.422;10.934;2022-09-09T07:39:39;14.70;92.50
26707;DHT22;14319;49.422;10.934;2022-09-09T07:41:45;14.70;93.60
26707;DHT22;14319;49.422;10.934;2022-09-09T07:43:49;14.90;93.10
26707;DHT22;14319;49.422;10.934;2022-09-09T07:45:57;15.10;92.70
26707;DHT22;14319;49.422;10.934;2022-09-09T07:47:58;15.10;92.90
26707;DHT22;14319;49.422;10.934;2022-09-09T07:49:59;15.10;91.60
26707;DHT22;14319;49.422;10.934;2022-09-09T07:52:04;15.20;90.30
26707;DHT22;14319;49.422;10.934;2022-09-09T07:54:09;15.20;91.40
26707;DHT22;14319;49.422;10.934;2022-09-09T07:56:16;15.30;91.30
26707;DHT22;14319;49.422;10.934;2022-09-09T07:58:18;15.50;92.00
26707;DHT22;14319;49.422;10.934;2022-09-09T08:00:19;15.50;89.10
26707;DHT22;14319;49.422;10.934;2022-09-09T08:02:27;15.80;91.50
26707;DHT22;14319;49.422;10.934;2022-09-09T08:04:30;15.80;89.10
26707;DHT22;14319;49.422;10.934;2022-09-09T08:06:35;15.90;87.80
26707;DHT22;14319;49.422;10.934;2022-09-09T08:08:36;16.00;86.80
26707;DHT22;14319;49.422;10.934;2022-09-09T08:10:38;16.10;86.50
26707;DHT22;14319;49.422;10.934;2022-09-09T08:12:38;16.20;83.40
26707;DHT22;14319;49.422;10.934;2022-09-09T08:14:40;16.40;82.80
26707;DHT22;14319;49.422;10.934;2022-09-09T08:16:43;16.60;83.70
26707;DHT22;14319;49.422;10.934;2022-09-09T08:18:46;16.70;80.10
26707;DHT22;14319;49.422;10.934;2022-09-09T08:20:48;16.90;77.50
26707;DHT22;14319;49.422;10.934;2022-09-09T08:22:49;17.00;77.00
26707;DHT22;14319;49.422;10.934;2022-09-09T08:24:50;17.30;75.00
26707;DHT22;14319;49.422;10.934;2022-09-09T08:26:52;17.40;74.80
26707;DHT22;14319;49.422;10.934;2022-09-09T08:28:58;17.50;74.00
26707;DHT22;14319;49.422;10.934;2022-09-09T08:31:27;17.60;75.10
26707;DHT22;14319;49.422;10.934;2022-09-09T08:33:29;17.60;73.50
26707;DHT22;14319;49.422;10.934;2022-09-09T08:35:29;17.60;72.80
26707;DHT22;14319;49.422;10.934;2022-09-09T08:37:33;17.80;72.80
26707;DHT22;14319;49.422;10.934;2022-09-09T08:39:34;17.70;72.40
26707;DHT22;14319;49.422;10.934;2022-09-09T08:42:09;17.70;72.20
26707;DHT22;14319;49.422;10.934;2022-09-09T08:46:21;17.90;71.90
26707;DHT22;14319;49.422;10.934;2022-09-09T08:48:45;18.00;74.70
26707;DHT22;14319;49.422;10.934;2022-09-09T08:50:49;18.10;71.60
26707;DHT22;14319;49.422;10.934;2022-09-09T08:53:14;18.20;70.40
26707;DHT22;14319;49.422;10.934;2022-09-09T08:57:25;18.30;70.70
26707;DHT22;14319;49.422;10.934;2022-09-09T08:59:27;18.40;71.10
26707;DHT22;14319;49.422;10.934;2022-09-09T09:01:48;18.40;71.10
26707;DHT22;14319;49.422;10.934;2022-09-09T09:04:21;18.60;70.40
26707;DHT22;14319;49.422;10.934;2022-09-09T09:08:36;18.80;68.10
26707;DHT22;14319;49.422;10.934;2022-09-09T09:10:48;18.80;67.90
26707;DHT22;14319;49.422;10.934;2022-09-09T09:12:53;18.80;66.90
26707;DHT22;14319;49.422;10.934;2022-09-09T09:14:55;18.80;68.00
26707;DHT22;14319;49.422;10.934;2022-09-09T09:17:10;18.80;68.20
26707;DHT22;14319;49.422;10.934;2022-09-09T09:19:15;18.90;68.10
26707;DHT22;14319;49.422;10.934;2022-09-09T09:21:41;18.90;69.30
26707;DHT22;14319;49.422;10.934;2022-09-09T09:23:54;18.90;68.90
26707;DHT22;14319;49.422;10.934;2022-09-09T09:25:59;19.00;69.20
26707;DHT22;14319;49.422;10.934;2022-09-09T09:28:15;19.00;66.50
26707;DHT22;14319;49.422;10.934;2022-09-09T09:30:26;19.10;67.60
26707;DHT22;14319;49.422;10.934;2022-09-09T09:32:33;19.10;68.50
26707;DHT22;14319;49.422;10.934;2022-09-09T09:34:34;19.20;69.10
26707;DHT22;14319;49.422;10.934;2022-09-09T09:36:44;19.20;69.10
26707;DHT22;14319;49.422;10.934;2022-09-09T09:39:00;19.30;68.20
26707;DHT22;14319;49.422;10.934;2022-09-09T09:41:03;19.30;66.90
26707;DHT22;14319;49.422;10.934;2022-09-09T09:43:40;19.40;67.20
26707;DHT22;14319;49.422;10.934;2022-09-09T09:45:44;19.60;67.00
26707;DHT22;14319;49.422;10.934;2022-09-09T09:47:46;19.60;64.80
26707;DHT22;14319;49.422;10.934;2022-09-09T09:49:59;19.60;66.40
26707;DHT22;14319;49.422;10.934;2022-09-09T09:52:06;19.60;66.20
26707;DHT22;14319;49.422;10.934;2022-09-09T09:56:14;19.70;64.90
26707;DHT22;14319;49.422;10.934;2022-09-09T09:58:17;19.70;66.90
26707;DHT22;14319;49.422;10.934;2022-09-09T10:00:21;19.60;66.10
26707;DHT22;14319;49.422;10.934;2022-09-09T10:02:36;19.60;66.80
26707;DHT22;14319;49.422;10.934;2022-09-09T10:04:40;19.60;65.80
26707;DHT22;14319;49.422;10.934;2022-09-09T10:06:41;19.80;65.90
26707;DHT22;14319;49.422;10.934;2022-09-09T10:08:46;20.00;64.20
26707;DHT22;14319;49.422;10.934;2022-09-09T10:13:08;20.00;62.20
26707;DHT22;14319;49.422;10.934;2022-09-09T10:17:40;20.10;64.70
26707;DHT22;14319;49.422;10.934;2022-09-09T10:19:59;20.10;62.10
26707;DHT22;14319;49.422;10.934;2022-09-09T10:22:47;20.10;62.40
26707;DHT22;14319;49.422;10.934;2022-09-09T10:36:51;20.60;60.50
26707;DHT22;14319;49.422;10.934;2022-09-09T10:43:25;20.70;60.70
26707;DHT22;14319;49.422;10.934;2022-09-09T10:45:41;20.70;60.60
26707;DHT22;14319;49.422;10.934;2022-09-09T10:48:08;20.60;61.20
26707;DHT22;14319;49.422;10.934;2022-09-09T10:53:00;20.30;61.70
26707;DHT22;14319;49.422;10.934;2022-09-09T10:57:27;20.10;61.90
26707;DHT22;14319;49.422;10.934;2022-09-09T10:59:40;20.30;62.20
26707;DHT22;14319;49.422;10.934;2022-09-09T11:01:53;20.10;59.90
26707;DHT22;14319;49.422;10.934;2022-09-09T11:04:11;20.20;62.50
26707;DHT22;14319;49.422;10.934;2022-09-09T11:06:19;20.40;60.00
26707;DHT22;14319;49.422;10.934;2022-09-09T11:08:24;20.50;62.00
26707;DHT22;14319;49.422;10.934;2022-09-09T11:10:45;20.50;61.80
26707;DHT22;14319;49.422;10.934;2022-09-09T11:12:50;20.60;60.90
26707;DHT22;14319;49.422;10.934;2022-09-09T11:15:28;20.80;60.40
26707;DHT22;14319;49.422;10.934;2022-09-09T11:17:49;20.80;60.00
26707;DHT22;14319;49.422;10.934;2022-09-09T11:19:51;20.80;59.20
26707;DHT22;14319;49.422;10.934;2022-09-09T11:21:53;20.90;60.60
26707;DHT22;14319;49.422;10.934;2022-09-09T11:24:03;21.00;59.70
26707;DHT22;14319;49.422;10.934;2022-09-09T11:26:06;21.20;59.50
26707;DHT22;14319;49.422;10.934;2022-09-09T11:44:28;21.50;56.60
26707;DHT22;14319;49.422;10.934;2022-09-09T11:46:36;21.60;57.30
26707;DHT22;14319;49.422;10.934;2022-09-09T11:48:41;21.50;56.90
26707;DHT22;14319;49.422;10.934;2022-09-09T11:50:46;21.70;58.10
26707;DHT22;14319;49.422;10.934;2022-09-09T11:53:21;21.70;59.60
26707;DHT22;14319;49.422;10.934;2022-09-09T11:55:35;21.80;55.60
26707;DHT22;14319;49.422;10.934;2022-09-09T11:57:38;21.90;55.70
26707;DHT22;14319;49.422;10.934;2022-09-09T11:59:50;21.90;56.30
26707;DHT22;14319;49.422;10.934;2022-09-09T12:01:59;22.00;55.60
26707;DHT22;14319;49.422;10.934;2022-09-09T12:04:04;21.80;58.40
26707;DHT22;14319;49.422;10.934;2022-09-09T12:08:22;21.70;58.30
26707;DHT22;14319;49.422;10.934;2022-09-09T12:10:34;21.90;57.40
26707;DHT22;14319;49.422;10.934;2022-09-09T12:12:37;21.90;56.10
26707;DHT22;14319;49.422;10.934;2022-09-09T12:14:43;21.90;55.20
26707;DHT22;14319;49.422;10.934;2022-09-09T12:16:44;21.90;54.50
26707;DHT22;14319;49.422;10.934;2022-09-09T12:18:45;21.80;53.00
26707;DHT22;14319;49.422;10.934;2022-09-09T12:23:24;21.90;52.50
26707;DHT22;14319;49.422;10.934;2022-09-09T12:27:50;21.80;53.30
26707;DHT22;14319;49.422;10.934;2022-09-09T12:30:02;21.70;53.90
26707;DHT22;14319;49.422;10.934;2022-09-09T12:32:11;21.60;55.30
26707;DHT22;14319;49.422;10.934;2022-09-09T12:36:44;21.50;56.70
26707;DHT22;14319;49.422;10.934;2022-09-09T12:38:48;21.50;55.50
26707;DHT22;14319;49.422;10.934;2022-09-09T12:40:55;21.50;56.10
26707;DHT22;14319;49.422;10.934;2022-09-09T12:42:57;21.40;57.10
26707;DHT22;14319;49.422;10.934;2022-09-09T12:45:01;21.30;57.20
26707;DHT22;14319;49.422;10.934;2022-09-09T12:47:03;21.20;58.20
26707;DHT22;14319;49.422;10.934;2022-09-09T12:49:04;21.20;57.80
26707;DHT22;14319;49.422;10.934;2022-09-09T12:51:26;21.20;58.10
26707;DHT22;14319;49.422;10.934;2022-09-09T12:53:33;20.90;57.70
26707;DHT22;14319;49.422;10.934;2022-09-09T12:55:37;20.10;57.10
26707;DHT22;14319;49.422;10.934;2022-09-09T12:57:39;19.20;59.30
26707;DHT22;14319;49.422;10.934;2022-09-09T12:59:43;18.80;64.00
26707;DHT22;14319;49.422;10.934;2022-09-09T13:01:55;18.30;71.30
26707;DHT22;14319;49.422;10.934;2022-09-09T13:03:56;17.80;73.80
26707;DHT22;14319;49.422;10.934;2022-09-09T13:05:59;17.30;74.80
26707;DHT22;14319;49.422;10.934;2022-09-09T13:08:12;17.10;79.10
26707;DHT22;14319;49.422;10.934;2022-09-09T13:10:15;17.20;77.60
26707;DHT22;14319;49.422;10.934;2022-09-09T13:12:24;17.00;80.20
26707;DHT22;14319;49.422;10.934;2022-09-09T13:14:29;17.40;82.60
26707;DHT22;14319;49.422;10.934;2022-09-09T13:16:33;17.40;72.70
26707;DHT22;14319;49.422;10.934;2022-09-09T13:18:36;17.40;74.20
26707;DHT22;14319;49.422;10.934;2022-09-09T13:20:38;17.40;73.00
26707;DHT22;14319;49.422;10.934;2022-09-09T13:22:40;17.40;74.00
26707;DHT22;14319;49.422;10.934;2022-09-09T13:24:41;17.50;74.90
26707;DHT22;14319;49.422;10.934;2022-09-09T13:26:43;17.60;74.50
26707;DHT22;14319;49.422;10.934;2022-09-09T13:28:44;17.80;72.80
26707;DHT22;14319;49.422;10.934;2022-09-09T13:31:02;17.90;74.40
26707;DHT22;14319;49.422;10.934;2022-09-09T13:35:23;18.20;70.30
26707;DHT22;14319;49.422;10.934;2022-09-09T13:37:34;18.30;69.20
26707;DHT22;14319;49.422;10.934;2022-09-09T13:39:37;18.30;69.40
26707;DHT22;14319;49.422;10.934;2022-09-09T13:41:45;18.50;72.40
26707;DHT22;14319;49.422;10.934;2022-09-09T13:43:47;18.60;71.70
26707;DHT22;14319;49.422;10.934;2022-09-09T13:46:05;18.70;70.60
26707;DHT22;14319;49.422;10.934;2022-09-09T13:48:21;18.90;69.50
26707;DHT22;14319;49.422;10.934;2022-09-09T13:50:23;18.80;68.90
26707;DHT22;14319;49.422;10.934;2022-09-09T13:52:26;18.80;69.10
26707;DHT22;14319;49.422;10.934;2022-09-09T13:54:27;18.80;69.30
26707;DHT22;14319;49.422;10.934;2022-09-09T13:56:28;18.80;70.00
26707;DHT22;14319;49.422;10.934;2022-09-09T13:58:29;18.80;68.70
26707;DHT22;14319;49.422;10.934;2022-09-09T14:00:32;18.60;68.20
26707;DHT22;14319;49.422;10.934;2022-09-09T14:02:33;18.70;68.80
26707;DHT22;14319;49.422;10.934;2022-09-09T14:04:34;19.00;69.40
26707;DHT22;14319;49.422;10.934;2022-09-09T14:06:36;19.00;68.90
26707;DHT22;14319;49.422;10.934;2022-09-09T14:08:38;19.30;68.30
26707;DHT22;14319;49.422;10.934;2022-09-09T14:10:39;19.30;67.00
26707;DHT22;14319;49.422;10.934;2022-09-09T14:12:40;19.40;67.50
26707;DHT22;14319;49.422;10.934;2022-09-09T14:14:42;19.40;68.20
26707;DHT22;14319;49.422;10.934;2022-09-09T14:16:44;19.40;68.00
26707;DHT22;14319;49.422;10.934;2022-09-09T14:18:45;19.40;70.30
26707;DHT22;14319;49.422;10.934;2022-09-09T14:20:46;19.40;70.00
26707;DHT22;14319;49.422;10.934;2022-09-09T14:22:47;19.40;69.50
26707;DHT22;14319;49.422;10.934;2022-09-09T14:24:48;19.30;70.70
26707;DHT22;14319;49.422;10.934;2022-09-09T14:26:49;19.40;71.50
26707;DHT22;14319;49.422;10.934;2022-09-09T14:28:51;19.40;70.30
26707;DHT22;14319;49.422;10.934;2022-09-09T14:30:52;19.40;71.30
26707;DHT22;14319;49.422;10.934;2022-09-09T14:32:53;19.40;71.10
26707;DHT22;14319;49.422;10.934;2022-09-09T14:34:53;19.50;71.10
26707;DHT22;14319;49.422;10.934;2022-09-09T14:36:54;19.50;71.50
26707;DHT22;14319;49.422;10.934;2022-09-09T14:38:56;19.50;72.30
26707;DHT22;14319;49.422;10.934;2022-09-09T14:40:57;19.50;72.20
26707;DHT22;14319;49.422;10.934;2022-09-09T14:42:59;19.40;70.00
26707;DHT22;14319;49.422;10.934;2022-09-09T14:45:00;19.40;71.20
26707;DHT22;14319;49.422;10.934;2022-09-09T14:47:00;19.40;70.90
26707;DHT22;14319;49.422;10.934;2022-09-09T14:49:01;19.50;72.00
26707;DHT22;14319;49.422;10.934;2022-09-09T14:51:09;19.90;71.00
26707;DHT22;14319;49.422;10.934;2022-09-09T14:53:10;20.10;69.50